KOLF/OLF METAR and TAF weather

Enter ICAO airport designator
Station Type Date Time Source
KOLF METAR 2022/01/25 04:53 UTC NOAA

KOLF 250453Z AUTO 08006KT 10SM OVC041 M14/M18 A3025 RMK AO2 SLP288 T11391178


Station Type Date Time Source
KOLF Decoded METAR 2022/01/25 04:53 UTC NOAA

WOLF POINT CLAYTON AIRPORT, MT, United States (KOLF) 48-06N 105-35W 604M
Jan 24, 2022 - 11:53 PM EST / 2022.01.25 0453 UTC
Wind: from the E (080 degrees) at 7 MPH (6 KT):0
Visibility: 10 mile(s):0
Sky conditions: overcast
Temperature: 7.0 F (-13.9 C)
Windchill: -4 F (-20 C):1
Dew Point: -0.0 F (-17.8 C)
Relative Humidity: 72%
Pressure (altimeter): 30.25 in. Hg (1024 hPa)
ob: KOLF 250453Z AUTO 08006KT 10SM OVC041 M14/M18 A3025 RMK AO2 SLP288 T11391178
cycle: 5

Station Type Date Time Source
KOLF TAF 2022/01/25 06:22 UTC NOAA

TAF KOLF 250520Z 2506/2606 VRB06KT P6SM BKN045
FM260300 VRB06KT P6SM SCT120 WS020/24035KT

Example: see airport list